createdAt,value
2022-10-22T00:00:14.018Z,8.26
2022-10-22T00:01:34.981Z,7.64
2022-10-22T00:02:56.412Z,8.09
2022-10-22T00:04:17.363Z,8.24
2022-10-22T00:05:38.357Z,7.56
2022-10-22T00:06:59.702Z,8.19
2022-10-22T00:08:20.982Z,7.76
2022-10-22T00:09:41.970Z,9.40
2022-10-22T00:11:11.236Z,7.76
2022-10-22T00:12:32.354Z,8.99
2022-10-22T00:13:53.807Z,8.09
2022-10-22T00:15:15.232Z,7.77
2022-10-22T00:16:36.852Z,9.02
2022-10-22T00:17:58.545Z,8.13
2022-10-22T00:19:19.530Z,8.64
2022-10-22T00:20:40.952Z,7.69
2022-10-22T00:22:02.205Z,7.24
2022-10-22T00:23:23.268Z,7.36
2022-10-22T00:24:44.352Z,7.14
2022-10-22T00:26:05.902Z,7.16
2022-10-22T00:27:27.189Z,8.02
2022-10-22T00:28:48.475Z,6.47
2022-10-22T00:30:10.597Z,6.76
2022-10-22T00:31:32.092Z,8.10
2022-10-22T00:32:53.375Z,7.26
2022-10-22T00:34:18.179Z,6.85
2022-10-22T00:35:39.550Z,6.95
2022-10-22T00:37:00.753Z,7.26
2022-10-22T00:38:21.944Z,8.07
2022-10-22T00:39:42.873Z,7.63
2022-10-22T00:41:04.786Z,6.85
2022-10-22T00:42:26.401Z,8.31
2022-10-22T00:45:12.655Z,8.69
2022-10-22T00:46:34.000Z,7.23
2022-10-22T00:47:58.973Z,6.72
2022-10-22T00:49:20.210Z,6.60
2022-10-22T00:50:52.478Z,6.87
2022-10-22T00:52:13.737Z,6.73
2022-10-22T00:54:53.508Z,6.68
2022-10-22T00:56:15.540Z,6.69
2022-10-22T00:57:36.990Z,6.46
2022-10-22T00:58:59.197Z,6.50
2022-10-22T01:00:20.732Z,6.99
2022-10-22T01:01:41.882Z,6.91
2022-10-22T01:03:03.404Z,6.49
2022-10-22T01:04:24.712Z,7.23
2022-10-22T01:07:11.826Z,6.83
2022-10-22T01:08:39.691Z,6.92
2022-10-22T01:10:19.842Z,6.84
2022-10-22T01:13:45.482Z,6.53
2022-10-22T01:15:10.417Z,7.04
2022-10-22T01:16:52.094Z,6.33
2022-10-22T01:18:17.045Z,6.17
2022-10-22T01:19:58.474Z,6.58
2022-10-22T01:22:44.656Z,7.21
2022-10-22T01:24:24.109Z,7.50
2022-10-22T01:27:36.456Z,6.84
2022-10-22T01:29:04.482Z,7.08
2022-10-22T01:30:25.557Z,6.81
2022-10-22T01:31:50.436Z,7.09
2022-10-22T01:33:13.257Z,6.66
2022-10-22T01:34:34.697Z,6.57
2022-10-22T01:35:59.023Z,6.78
2022-10-22T01:37:21.214Z,7.00
2022-10-22T01:38:42.812Z,6.81
2022-10-22T01:40:05.242Z,6.76
2022-10-22T01:42:38.135Z,7.72
2022-10-22T01:43:59.643Z,6.56
2022-10-22T01:45:21.270Z,7.21
2022-10-22T01:46:42.312Z,6.27
2022-10-22T01:48:32.850Z,7.31
2022-10-22T01:50:15.727Z,6.66
2022-10-22T01:51:57.085Z,6.65
2022-10-22T01:53:25.228Z,5.87
2022-10-22T01:54:51.582Z,6.29
2022-10-22T01:58:03.777Z,7.83
2022-10-22T01:59:46.932Z,6.46
2022-10-22T02:01:20.680Z,7.13
2022-10-22T02:02:57.917Z,6.89
2022-10-22T02:04:29.930Z,7.17
2022-10-22T02:05:55.048Z,7.08
2022-10-22T02:07:17.817Z,6.94
2022-10-22T02:08:38.973Z,6.54
2022-10-22T02:10:00.256Z,6.71
2022-10-22T02:11:21.662Z,7.21
2022-10-22T02:12:43.611Z,7.31
2022-10-22T02:14:05.034Z,5.30
2022-10-22T02:15:26.952Z,7.42
2022-10-22T02:16:48.799Z,7.09
2022-10-22T02:18:10.102Z,7.45
2022-10-22T02:20:53.194Z,7.85
2022-10-22T02:22:14.527Z,7.62
2022-10-22T02:23:35.484Z,7.63
2022-10-22T02:24:57.102Z,8.02
2022-10-22T02:26:33.975Z,7.73
2022-10-22T02:28:16.266Z,6.76
2022-10-22T02:29:40.180Z,7.09
2022-10-22T02:31:04.995Z,7.93
2022-10-22T02:32:28.270Z,7.14
2022-10-22T02:35:14.648Z,6.67
2022-10-22T02:36:37.118Z,7.21
2022-10-22T02:37:58.552Z,6.77
2022-10-22T02:39:19.772Z,6.88
2022-10-22T02:40:40.741Z,6.16
2022-10-22T02:42:02.037Z,7.17
2022-10-22T02:43:24.255Z,7.50
2022-10-22T02:44:45.270Z,7.16
2022-10-22T02:46:06.779Z,7.62
2022-10-22T02:47:28.090Z,6.41
2022-10-22T02:48:49.329Z,6.93
2022-10-22T02:50:10.722Z,7.02
2022-10-22T02:51:32.230Z,6.62
2022-10-22T02:52:53.694Z,6.71
2022-10-22T02:54:14.939Z,6.62
2022-10-22T02:55:35.914Z,18.48
2022-10-22T02:56:57.421Z,13.03
2022-10-22T02:58:18.882Z,13.35
2022-10-22T02:59:39.881Z,10.28
2022-10-22T03:01:01.073Z,18.26
2022-10-22T03:02:22.298Z,57.51
2022-10-22T03:03:43.815Z,43.81
2022-10-22T03:05:05.825Z,9.62
2022-10-22T03:06:27.049Z,144.37
2022-10-22T03:07:48.090Z,102.78
2022-10-22T03:09:09.191Z,325.45
2022-10-22T03:10:30.626Z,129.11
2022-10-22T03:11:52.117Z,35.28
2022-10-22T03:13:13.263Z,42.56
2022-10-22T03:14:34.948Z,34.52
2022-10-22T03:15:57.897Z,50.39
2022-10-22T03:18:39.946Z,18.49
2022-10-22T03:20:01.440Z,12.87
2022-10-22T03:22:42.229Z,24.11
2022-10-22T03:24:07.462Z,28.23
2022-10-22T03:25:28.653Z,19.75
2022-10-22T03:26:50.304Z,52.75
2022-10-22T03:28:11.542Z,27.71
2022-10-22T03:29:33.516Z,17.56
2022-10-22T03:30:55.863Z,19.31
2022-10-22T03:32:17.123Z,7.37
2022-10-22T03:33:38.618Z,11.76
2022-10-22T03:36:21.487Z,7.47
2022-10-22T03:37:43.112Z,7.08
2022-10-22T03:39:04.624Z,6.97
2022-10-22T03:40:25.902Z,9.77
2022-10-22T03:41:47.721Z,13.09
2022-10-22T03:43:08.771Z,13.64
2022-10-22T03:44:29.718Z,10.61
2022-10-22T03:45:52.879Z,15.04
2022-10-22T03:47:14.281Z,8.43
2022-10-22T03:48:35.564Z,21.99
2022-10-22T03:49:56.501Z,16.88
2022-10-22T03:51:18.077Z,9.87
2022-10-22T03:52:39.227Z,13.08
2022-10-22T03:54:00.445Z,16.58
2022-10-22T03:55:21.774Z,45.14
2022-10-22T03:56:43.400Z,46.65
2022-10-22T03:58:04.881Z,22.51
2022-10-22T03:59:26.098Z,16.21
2022-10-22T04:00:47.682Z,21.23
2022-10-22T04:02:09.178Z,29.57
2022-10-22T04:03:30.156Z,21.08
2022-10-22T04:04:51.708Z,15.82
2022-10-22T04:06:13.767Z,12.54
2022-10-22T04:07:35.043Z,55.96
2022-10-22T04:08:56.287Z,42.08
2022-10-22T04:10:17.816Z,31.75
2022-10-22T04:11:40.906Z,20.67
2022-10-22T04:13:02.010Z,21.91
2022-10-22T04:14:22.973Z,22.75
2022-10-22T04:17:07.322Z,24.43
2022-10-22T04:18:29.484Z,19.43
2022-10-22T04:19:51.024Z,11.99
2022-10-22T04:21:13.173Z,9.99
2022-10-22T04:22:34.534Z,11.59
2022-10-22T04:23:55.943Z,9.10
2022-10-22T04:25:17.595Z,13.91
2022-10-22T04:26:38.935Z,16.89
2022-10-22T04:28:00.462Z,8.62
2022-10-22T04:30:39.248Z,10.03
2022-10-22T04:32:00.536Z,19.45
2022-10-22T04:33:21.924Z,10.23
2022-10-22T04:34:43.470Z,11.12
2022-10-22T04:37:19.480Z,9.15
2022-10-22T04:38:41.564Z,7.83
2022-10-22T04:40:03.898Z,7.06
2022-10-22T04:41:29.863Z,7.48
2022-10-22T04:42:51.349Z,7.27
2022-10-22T04:44:16.112Z,7.74
2022-10-22T04:45:39.656Z,7.81
2022-10-22T04:47:01.307Z,7.06
2022-10-22T04:48:23.935Z,8.29
2022-10-22T04:49:45.162Z,7.41
2022-10-22T04:51:07.137Z,7.07
2022-10-22T04:52:28.607Z,5.67
2022-10-22T04:53:50.136Z,7.76
2022-10-22T04:55:14.070Z,8.56
2022-10-22T04:56:35.041Z,7.30
2022-10-22T04:57:56.228Z,9.11
2022-10-22T04:59:17.764Z,7.55
2022-10-22T05:00:38.915Z,7.06
2022-10-22T05:02:00.533Z,7.48
2022-10-22T05:03:24.392Z,7.00
2022-10-22T05:04:45.429Z,7.33
2022-10-22T05:06:07.321Z,6.98
2022-10-22T05:07:28.470Z,7.73
2022-10-22T05:10:08.763Z,7.28
2022-10-22T05:11:32.917Z,6.67
2022-10-22T05:12:56.962Z,7.49
2022-10-22T05:14:19.878Z,8.07
2022-10-22T05:15:41.932Z,7.81
2022-10-22T05:17:03.348Z,11.82
2022-10-22T05:18:24.867Z,10.46
2022-10-22T05:19:46.303Z,9.47
2022-10-22T05:22:23.247Z,10.72
2022-10-22T05:23:46.575Z,10.38
2022-10-22T05:25:08.329Z,12.74
2022-10-22T05:26:29.938Z,14.58
2022-10-22T05:27:51.058Z,9.49
2022-10-22T05:29:12.982Z,18.44
2022-10-22T05:30:33.923Z,11.51
2022-10-22T05:31:55.551Z,10.32
2022-10-22T05:33:19.645Z,9.42
2022-10-22T05:36:00.996Z,7.59
2022-10-22T05:37:22.735Z,8.06
2022-10-22T05:38:44.210Z,8.90
2022-10-22T05:40:19.100Z,9.12
2022-10-22T05:41:29.439Z,9.50
2022-10-22T05:42:51.235Z,10.29
2022-10-22T05:44:12.770Z,9.77
2022-10-22T05:45:40.626Z,10.59
2022-10-22T05:47:01.645Z,10.74
2022-10-22T05:48:22.889Z,10.00
2022-10-22T05:49:44.757Z,10.16
2022-10-22T05:51:10.410Z,11.32
2022-10-22T05:52:31.800Z,9.06
2022-10-22T05:53:57.149Z,10.25
2022-10-22T05:55:18.335Z,8.59
2022-10-22T05:56:39.891Z,8.73
2022-10-22T05:58:01.350Z,15.17
2022-10-22T05:59:22.496Z,12.49
2022-10-22T06:00:44.145Z,19.76
2022-10-22T06:02:05.824Z,70.41
2022-10-22T06:03:27.079Z,22.85
2022-10-22T06:04:48.557Z,16.34
2022-10-22T06:06:17.261Z,18.31
2022-10-22T06:07:38.730Z,19.74
2022-10-22T06:09:17.659Z,22.41
2022-10-22T06:10:40.385Z,18.74
2022-10-22T06:12:01.631Z,14.41
2022-10-22T06:13:23.023Z,13.49
2022-10-22T06:14:43.935Z,10.15
2022-10-22T06:16:05.421Z,9.48
2022-10-22T06:17:26.410Z,13.03
2022-10-22T06:18:47.408Z,9.96
2022-10-22T06:20:10.383Z,9.38
2022-10-22T06:21:32.499Z,9.48
2022-10-22T06:22:53.535Z,9.79
2022-10-22T06:24:14.549Z,10.94
2022-10-22T06:25:36.031Z,8.20
2022-10-22T06:26:57.801Z,10.04
2022-10-22T06:28:18.809Z,10.43
2022-10-22T06:29:39.820Z,13.40
2022-10-22T06:31:02.086Z,15.06
2022-10-22T06:32:23.830Z,7.89
2022-10-22T06:33:44.857Z,9.42
2022-10-22T06:35:06.931Z,9.23
2022-10-22T06:36:27.882Z,8.46
2022-10-22T06:37:49.418Z,9.24
2022-10-22T06:39:11.907Z,9.43
2022-10-22T06:40:33.620Z,9.58
2022-10-22T06:41:55.225Z,10.33
2022-10-22T06:43:16.739Z,10.19
2022-10-22T06:44:38.138Z,9.54
2022-10-22T06:46:05.259Z,10.84
2022-10-22T06:47:26.422Z,12.79
2022-10-22T06:50:05.945Z,11.34
2022-10-22T06:51:27.052Z,10.00
2022-10-22T06:52:48.253Z,11.04
2022-10-22T06:54:09.911Z,9.93
2022-10-22T06:55:31.014Z,10.29
2022-10-22T06:56:54.265Z,11.32
2022-10-22T06:58:15.611Z,13.23
2022-10-22T06:59:38.913Z,10.18
2022-10-22T07:01:07.314Z,9.95
2022-10-22T07:02:28.427Z,9.24
2022-10-22T07:03:50.199Z,11.93
2022-10-22T07:05:11.175Z,10.74
2022-10-22T07:06:32.525Z,10.42
2022-10-22T07:07:53.557Z,10.14
2022-10-22T07:09:15.131Z,10.14
2022-10-22T07:10:36.492Z,9.97
2022-10-22T07:11:58.211Z,8.95
2022-10-22T07:13:19.416Z,10.72
2022-10-22T07:14:41.749Z,10.15
2022-10-22T07:16:03.637Z,9.28
2022-10-22T07:17:24.659Z,9.86
2022-10-22T07:18:46.969Z,9.03
2022-10-22T07:21:30.959Z,10.45
2022-10-22T07:22:52.255Z,8.93
2022-10-22T07:24:13.541Z,9.11
2022-10-22T07:25:34.532Z,10.26
2022-10-22T07:26:57.312Z,10.07
2022-10-22T07:28:18.815Z,15.34
2022-10-22T07:29:41.281Z,16.38
2022-10-22T07:31:02.541Z,10.26
2022-10-22T07:32:24.238Z,12.59
2022-10-22T07:33:45.483Z,12.48
2022-10-22T07:35:07.529Z,12.78
2022-10-22T07:36:28.851Z,12.11
2022-10-22T07:37:50.124Z,12.22
2022-10-22T07:39:11.246Z,11.43
2022-10-22T07:40:33.181Z,9.77
2022-10-22T07:41:54.777Z,10.12
2022-10-22T07:43:16.300Z,9.68
2022-10-22T07:44:37.713Z,10.27
2022-10-22T07:46:01.101Z,10.40
2022-10-22T07:47:22.398Z,10.10
2022-10-22T07:48:43.590Z,10.24
2022-10-22T07:50:05.853Z,10.46
2022-10-22T07:51:27.183Z,9.96
2022-10-22T07:52:48.425Z,9.43
2022-10-22T07:54:09.957Z,9.71
2022-10-22T07:55:31.675Z,9.83
2022-10-22T07:56:53.130Z,9.86
2022-10-22T07:58:14.345Z,9.90
2022-10-22T07:59:35.743Z,9.61
2022-10-22T08:00:57.841Z,10.51
2022-10-22T08:02:19.197Z,16.97
2022-10-22T08:03:40.162Z,11.36
2022-10-22T08:05:01.251Z,12.55
2022-10-22T08:07:45.590Z,13.82
2022-10-22T08:09:07.229Z,16.68
2022-10-22T08:10:28.857Z,18.92
2022-10-22T08:11:50.059Z,13.13
2022-10-22T08:13:11.534Z,11.37
2022-10-22T08:14:32.527Z,13.55
2022-10-22T08:15:57.574Z,11.19
2022-10-22T08:17:18.849Z,9.96
2022-10-22T08:18:40.265Z,10.51
2022-10-22T08:20:01.635Z,10.51
2022-10-22T08:22:35.455Z,9.88
2022-10-22T08:23:58.877Z,9.68
2022-10-22T08:25:20.411Z,10.52
2022-10-22T08:26:42.186Z,11.84
2022-10-22T08:28:03.509Z,9.02
2022-10-22T08:29:24.982Z,11.28
2022-10-22T08:30:48.329Z,9.28
2022-10-22T08:32:10.025Z,10.41
2022-10-22T08:33:33.816Z,10.48
2022-10-22T08:34:57.683Z,10.78
2022-10-22T08:36:20.402Z,10.70
2022-10-22T08:37:42.047Z,9.93
2022-10-22T08:39:03.893Z,7.17
2022-10-22T08:40:34.016Z,7.79
2022-10-22T08:42:18.714Z,9.48
2022-10-22T08:44:17.007Z,10.27
2022-10-22T08:45:47.826Z,9.62
2022-10-22T08:47:21.613Z,10.88
2022-10-22T08:48:50.262Z,10.04
2022-10-22T08:50:12.457Z,10.32
2022-10-22T08:51:34.536Z,9.86
2022-10-22T08:52:58.792Z,11.06
2022-10-22T08:54:41.812Z,9.91
2022-10-22T08:56:04.449Z,10.26
2022-10-22T08:57:35.157Z,10.05
2022-10-22T08:59:18.610Z,10.67
2022-10-22T09:00:46.127Z,10.48
2022-10-22T09:03:54.282Z,10.72
2022-10-22T09:05:28.527Z,11.42
2022-10-22T09:06:53.601Z,10.47
2022-10-22T09:08:17.870Z,9.57
2022-10-22T09:09:41.790Z,10.22
2022-10-22T09:12:28.761Z,9.41
2022-10-22T09:13:50.545Z,9.54
2022-10-22T09:15:15.452Z,9.48
2022-10-22T09:16:58.590Z,9.76
2022-10-22T09:18:44.378Z,9.98
2022-10-22T09:20:13.831Z,8.96
2022-10-22T09:21:55.609Z,9.40
2022-10-22T09:23:23.813Z,9.12
2022-10-22T09:24:46.698Z,9.40
2022-10-22T09:26:15.795Z,9.39
2022-10-22T09:27:36.995Z,8.77
2022-10-22T09:28:59.470Z,11.73
2022-10-22T09:30:22.434Z,9.13
2022-10-22T09:31:43.572Z,8.67
2022-10-22T09:33:25.449Z,9.38
2022-10-22T09:34:46.985Z,8.85
2022-10-22T09:36:10.837Z,9.66
2022-10-22T09:37:31.896Z,15.09
2022-10-22T09:38:53.300Z,8.91
2022-10-22T09:40:15.316Z,8.87
2022-10-22T09:41:36.562Z,8.93
2022-10-22T09:42:57.920Z,9.59
2022-10-22T09:44:19.511Z,8.46
2022-10-22T09:45:41.600Z,8.74
2022-10-22T09:47:06.747Z,8.54
2022-10-22T09:49:46.379Z,8.18
2022-10-22T09:51:14.618Z,8.26
2022-10-22T09:52:36.281Z,8.78
2022-10-22T09:54:00.815Z,8.72
2022-10-22T09:55:22.633Z,9.07
2022-10-22T09:56:59.954Z,8.37
2022-10-22T09:58:21.272Z,8.04
2022-10-22T09:59:43.209Z,8.32
2022-10-22T10:01:04.970Z,8.04
2022-10-22T10:02:44.407Z,7.71
2022-10-22T10:03:52.452Z,8.47
2022-10-22T10:05:18.987Z,8.08
2022-10-22T10:06:42.010Z,7.31
2022-10-22T10:09:24.958Z,6.73
2022-10-22T10:11:07.694Z,8.32
2022-10-22T10:12:47.427Z,7.57
2022-10-22T10:14:17.781Z,7.22
2022-10-22T10:17:20.199Z,8.17
2022-10-22T10:19:03.065Z,8.52
2022-10-22T10:20:46.251Z,7.54
2022-10-22T10:22:22.878Z,6.63
2022-10-22T10:23:59.255Z,6.89
2022-10-22T10:25:41.569Z,6.92
2022-10-22T10:27:14.322Z,7.67
2022-10-22T10:28:51.203Z,7.60
2022-10-22T10:30:21.552Z,7.63
2022-10-22T10:31:49.476Z,7.30
2022-10-22T10:33:23.542Z,8.41
2022-10-22T10:36:45.574Z,7.66
2022-10-22T10:38:29.614Z,7.85
2022-10-22T10:40:06.176Z,8.38
2022-10-22T10:41:46.674Z,7.21
2022-10-22T10:43:31.168Z,7.09
2022-10-22T10:45:14.397Z,8.70
2022-10-22T10:46:48.404Z,7.86
2022-10-22T10:48:29.224Z,8.24
2022-10-22T10:49:52.477Z,9.02
2022-10-22T10:51:35.498Z,10.46
2022-10-22T10:53:18.760Z,9.31
2022-10-22T10:54:59.529Z,6.88
2022-10-22T10:56:43.129Z,6.28
2022-10-22T11:00:00.911Z,6.96
2022-10-22T11:01:28.946Z,7.09
2022-10-22T11:03:10.317Z,9.93
2022-10-22T11:06:05.893Z,12.63
2022-10-22T11:10:30.010Z,6.73
2022-10-22T11:11:55.057Z,6.01
2022-10-22T11:13:31.275Z,8.53
2022-10-22T11:16:28.511Z,8.58
2022-10-22T11:17:50.081Z,8.75
2022-10-22T11:19:46.535Z,6.59
2022-10-22T11:21:05.226Z,5.94
2022-10-22T11:23:52.131Z,7.74
2022-10-22T11:25:20.138Z,6.66
2022-10-22T11:28:26.145Z,6.51
2022-10-22T11:29:51.232Z,6.76
2022-10-22T11:31:14.280Z,6.46
2022-10-22T11:32:38.854Z,6.28
2022-10-22T11:34:32.794Z,6.02
2022-10-22T11:36:51.195Z,11.39
2022-10-22T11:38:17.641Z,7.72
2022-10-22T11:40:00.576Z,6.44
2022-10-22T11:41:27.309Z,6.96
2022-10-22T11:44:22.278Z,32.70
2022-10-22T11:45:46.360Z,34.27
2022-10-22T11:47:19.111Z,23.24
2022-10-22T11:48:40.644Z,11.76
2022-10-22T11:50:17.725Z,6.98
2022-10-22T11:51:39.492Z,6.61
2022-10-22T11:53:03.574Z,6.59
2022-10-22T11:56:00.105Z,10.02
2022-10-22T11:58:40.158Z,7.53
2022-10-22T12:00:01.593Z,8.77
2022-10-22T12:02:43.616Z,9.14
2022-10-22T12:04:18.627Z,8.28
2022-10-22T12:05:39.953Z,8.13
2022-10-22T12:07:01.923Z,8.82
2022-10-22T12:08:25.150Z,8.71
2022-10-22T12:09:46.453Z,9.26
2022-10-22T12:11:23.029Z,9.11
2022-10-22T12:12:45.212Z,8.75
2022-10-22T12:14:26.820Z,8.03
2022-10-22T12:15:53.516Z,8.85
2022-10-22T12:17:15.189Z,9.47
2022-10-22T12:18:40.793Z,9.57
2022-10-22T12:20:07.421Z,9.22
2022-10-22T12:21:28.551Z,8.84
2022-10-22T12:22:49.527Z,8.28
2022-10-22T12:24:15.336Z,8.88
2022-10-22T12:25:37.556Z,8.45
2022-10-22T12:28:21.601Z,8.36
2022-10-22T12:31:04.176Z,7.56
2022-10-22T12:32:35.659Z,7.63
2022-10-22T12:33:58.045Z,7.93
2022-10-22T12:35:23.106Z,7.08
2022-10-22T12:36:45.950Z,7.96
2022-10-22T12:39:25.795Z,7.29
2022-10-22T12:40:48.775Z,7.69
2022-10-22T12:42:15.482Z,7.36
2022-10-22T12:43:37.324Z,8.17
2022-10-22T12:44:58.977Z,7.99
2022-10-22T12:46:20.549Z,9.17
2022-10-22T12:49:02.201Z,8.43
2022-10-22T12:50:33.405Z,8.69
2022-10-22T12:51:56.455Z,8.94
2022-10-22T12:53:24.260Z,12.21
2022-10-22T12:54:49.660Z,9.40
2022-10-22T12:56:14.024Z,9.83
2022-10-22T12:57:36.899Z,8.96
2022-10-22T12:59:04.195Z,8.90
2022-10-22T13:00:27.854Z,10.79
2022-10-22T13:01:49.451Z,8.42
2022-10-22T13:03:11.364Z,8.63
2022-10-22T13:04:34.367Z,8.69
2022-10-22T13:05:56.783Z,8.74
2022-10-22T13:07:21.163Z,8.49
2022-10-22T13:08:41.362Z,8.77
2022-10-22T13:10:04.507Z,8.64
2022-10-22T13:11:33.667Z,8.91
2022-10-22T13:12:55.974Z,9.32
2022-10-22T13:15:52.389Z,9.94
2022-10-22T13:17:18.309Z,9.38
2022-10-22T13:18:40.294Z,10.17
2022-10-22T13:20:04.450Z,9.77
2022-10-22T13:21:30.424Z,9.98
2022-10-22T13:23:01.677Z,9.63
2022-10-22T13:24:23.625Z,10.37
2022-10-22T13:25:49.401Z,8.21
2022-10-22T13:27:10.930Z,11.42
2022-10-22T13:28:32.563Z,11.34
2022-10-22T13:29:55.934Z,11.75
2022-10-22T13:31:27.239Z,11.08
2022-10-22T13:34:32.599Z,11.22
2022-10-22T13:35:55.539Z,11.12
2022-10-22T13:38:15.236Z,8.13
2022-10-22T13:39:38.629Z,12.00
2022-10-22T13:41:00.257Z,12.04
2022-10-22T13:42:22.004Z,11.47
2022-10-22T13:43:43.346Z,11.40
2022-10-22T13:45:05.755Z,12.57
2022-10-22T13:46:27.038Z,11.66
2022-10-22T13:47:52.647Z,12.20
2022-10-22T13:50:28.655Z,12.96
2022-10-22T13:51:50.164Z,12.20
2022-10-22T13:53:19.636Z,13.58
2022-10-22T13:54:41.116Z,13.79
2022-10-22T13:56:06.737Z,13.09
2022-10-22T13:57:27.972Z,13.44
2022-10-22T13:58:49.566Z,12.92
2022-10-22T14:01:35.717Z,13.23
2022-10-22T14:02:57.600Z,12.94
2022-10-22T14:04:18.928Z,13.77
2022-10-22T14:05:41.891Z,13.89
2022-10-22T14:07:04.152Z,13.77
2022-10-22T14:08:25.672Z,13.98
2022-10-22T14:09:47.210Z,14.82
2022-10-22T14:11:10.665Z,14.46
2022-10-22T14:12:31.675Z,14.97
2022-10-22T14:13:53.966Z,17.33
2022-10-22T14:15:16.944Z,18.46
2022-10-22T14:16:38.351Z,18.59
2022-10-22T14:18:00.693Z,19.29
2022-10-22T14:19:22.027Z,19.61
2022-10-22T14:20:43.750Z,18.13
2022-10-22T14:22:07.285Z,19.81
2022-10-22T14:23:29.245Z,18.92
2022-10-22T14:24:50.672Z,18.03
2022-10-22T14:26:24.300Z,19.07
2022-10-22T14:27:45.661Z,18.17
2022-10-22T14:29:11.124Z,19.04
2022-10-22T14:31:51.686Z,18.12
2022-10-22T14:33:31.416Z,17.03
2022-10-22T14:34:49.599Z,18.47
2022-10-22T14:37:22.823Z,18.84
2022-10-22T14:38:46.686Z,17.91
2022-10-22T14:40:10.602Z,17.03
2022-10-22T14:41:31.931Z,17.52
2022-10-22T14:42:53.240Z,18.09
2022-10-22T14:44:14.900Z,20.04
2022-10-22T14:45:36.787Z,19.51
2022-10-22T14:46:58.599Z,18.73
2022-10-22T14:48:20.657Z,19.51
2022-10-22T14:49:41.901Z,22.87
2022-10-22T14:51:05.642Z,22.65
2022-10-22T14:52:27.285Z,20.79
2022-10-22T14:53:50.491Z,19.42
2022-10-22T14:55:13.001Z,34.16
2022-10-22T14:56:34.398Z,28.98
2022-10-22T14:57:56.172Z,24.72
2022-10-22T14:59:17.376Z,21.38
2022-10-22T15:00:42.627Z,21.76
2022-10-22T15:02:04.289Z,22.57
2022-10-22T15:03:25.425Z,28.27
2022-10-22T15:04:48.180Z,29.06
2022-10-22T15:07:31.022Z,28.35
2022-10-22T15:08:52.290Z,28.36
2022-10-22T15:10:16.817Z,29.06
2022-10-22T15:11:38.985Z,28.86
2022-10-22T15:13:00.282Z,28.63
2022-10-22T15:14:21.451Z,28.47
2022-10-22T15:15:42.855Z,28.58
2022-10-22T15:17:03.890Z,28.31
2022-10-22T15:18:25.504Z,28.11
2022-10-22T15:19:46.681Z,28.42
2022-10-22T15:21:11.113Z,27.20
2022-10-22T15:22:32.431Z,26.63
2022-10-22T15:23:53.395Z,28.31
2022-10-22T15:25:14.355Z,30.36
2022-10-22T15:26:37.221Z,28.41
2022-10-22T15:29:21.687Z,48.61
2022-10-22T15:30:42.952Z,36.53
2022-10-22T15:32:04.621Z,35.72
2022-10-22T15:33:26.637Z,33.59
2022-10-22T15:34:47.967Z,35.50
2022-10-22T15:37:22.454Z,31.22
2022-10-22T15:38:44.018Z,29.08
2022-10-22T15:40:07.601Z,26.73
2022-10-22T15:41:29.587Z,29.18
2022-10-22T15:42:51.010Z,24.77
2022-10-22T15:44:18.256Z,27.28
2022-10-22T15:45:39.675Z,29.34
2022-10-22T15:47:02.733Z,28.55
2022-10-22T15:48:24.726Z,26.94
2022-10-22T15:49:46.584Z,25.19
2022-10-22T15:52:24.594Z,29.98
2022-10-22T15:53:53.777Z,28.92
2022-10-22T15:55:15.185Z,24.35
2022-10-22T15:56:36.917Z,23.27
2022-10-22T15:58:01.816Z,32.32
2022-10-22T16:00:42.960Z,23.44
2022-10-22T16:02:04.066Z,22.73
2022-10-22T16:03:25.503Z,22.98
2022-10-22T16:04:46.810Z,23.87
2022-10-22T16:06:08.276Z,24.93
2022-10-22T16:07:31.597Z,31.16
2022-10-22T16:08:53.823Z,104.67
2022-10-22T16:10:14.936Z,65.13
2022-10-22T16:11:38.086Z,34.29
2022-10-22T16:12:59.344Z,25.23
2022-10-22T16:14:20.835Z,24.58
2022-10-22T16:15:42.641Z,27.43
2022-10-22T16:17:03.840Z,20.22
2022-10-22T16:18:25.375Z,25.98
2022-10-22T16:19:47.260Z,25.49
2022-10-22T16:21:11.482Z,25.79
2022-10-22T16:22:33.011Z,25.54
2022-10-22T16:23:55.255Z,24.20
2022-10-22T16:25:16.943Z,24.59
2022-10-22T16:26:38.256Z,24.83
2022-10-22T16:27:59.519Z,23.99
2022-10-22T16:29:21.067Z,23.48
2022-10-22T16:30:42.572Z,24.04
2022-10-22T16:32:04.100Z,23.53
2022-10-22T16:33:25.357Z,34.58
2022-10-22T16:34:46.760Z,26.52
2022-10-22T16:37:21.504Z,36.54
2022-10-22T16:38:46.402Z,25.62
2022-10-22T16:40:08.965Z,27.11
2022-10-22T16:41:30.216Z,25.44
2022-10-22T16:42:52.062Z,27.86
2022-10-22T16:44:13.426Z,26.36
2022-10-22T16:45:34.711Z,25.92
2022-10-22T16:46:56.144Z,30.31
2022-10-22T16:48:17.401Z,27.74
2022-10-22T16:49:38.701Z,28.06
2022-10-22T16:52:17.130Z,39.11
2022-10-22T16:53:38.785Z,27.61
2022-10-22T16:55:00.369Z,27.63
2022-10-22T16:56:21.662Z,27.36
2022-10-22T16:57:43.519Z,28.36
2022-10-22T16:59:05.714Z,28.69
2022-10-22T17:00:27.249Z,28.02
2022-10-22T17:01:48.597Z,30.33
2022-10-22T17:03:10.784Z,29.05
2022-10-22T17:04:35.323Z,35.12
2022-10-22T17:05:59.795Z,34.14
2022-10-22T17:07:20.798Z,33.81
2022-10-22T17:08:43.816Z,35.53
2022-10-22T17:10:06.503Z,34.78
2022-10-22T17:11:28.377Z,39.64
2022-10-22T17:12:49.379Z,36.46
2022-10-22T17:14:10.411Z,38.44
2022-10-22T17:15:31.930Z,36.51
2022-10-22T17:16:53.981Z,31.68
2022-10-22T17:18:15.169Z,33.25
2022-10-22T17:19:36.216Z,31.06
2022-10-22T17:21:01.317Z,30.78
2022-10-22T17:22:22.517Z,29.62
2022-10-22T17:23:46.150Z,30.19
2022-10-22T17:25:14.181Z,30.46
2022-10-22T17:26:35.864Z,30.95
2022-10-22T17:28:53.862Z,30.87
2022-10-22T17:30:17.435Z,30.30
2022-10-22T17:31:39.454Z,28.68
2022-10-22T17:33:00.748Z,29.52
2022-10-22T17:34:22.564Z,30.42
2022-10-22T17:35:43.730Z,30.03
2022-10-22T17:37:05.162Z,32.04
2022-10-22T17:38:26.700Z,32.42
2022-10-22T17:39:49.945Z,32.54
2022-10-22T17:41:14.827Z,32.38
2022-10-22T17:42:35.803Z,31.31
2022-10-22T17:43:57.607Z,34.94
2022-10-22T17:45:19.174Z,34.54
2022-10-22T17:46:40.462Z,38.46
2022-10-22T17:48:01.539Z,35.87
2022-10-22T17:49:23.005Z,38.70
2022-10-22T17:50:48.206Z,35.52
2022-10-22T17:52:07.627Z,39.25
2022-10-22T17:53:28.698Z,37.79
2022-10-22T17:54:50.098Z,36.59
2022-10-22T17:56:14.089Z,37.42
2022-10-22T17:57:35.314Z,64.25
2022-10-22T17:58:56.292Z,41.59
2022-10-22T18:00:17.559Z,38.13
2022-10-22T18:01:38.724Z,39.44
2022-10-22T18:02:59.794Z,38.25
2022-10-22T18:04:21.159Z,32.04
2022-10-22T18:05:42.207Z,30.32
2022-10-22T18:08:14.858Z,29.96
2022-10-22T18:09:36.495Z,30.44
2022-10-22T18:11:00.729Z,29.17
2022-10-22T18:12:22.079Z,30.34
2022-10-22T18:13:43.624Z,31.14
2022-10-22T18:15:05.626Z,32.66
2022-10-22T18:16:26.861Z,35.07
2022-10-22T18:17:49.316Z,40.97
2022-10-22T18:19:11.106Z,41.75
2022-10-22T18:20:32.638Z,40.80
2022-10-22T18:21:54.570Z,42.56
2022-10-22T18:23:16.124Z,41.82
2022-10-22T18:24:37.823Z,43.07
2022-10-22T18:25:59.223Z,44.56
2022-10-22T18:27:20.468Z,42.18
2022-10-22T18:28:41.961Z,43.62
2022-10-22T18:30:03.989Z,45.11
2022-10-22T18:31:26.334Z,45.09
2022-10-22T18:32:47.388Z,46.68
2022-10-22T18:34:08.778Z,49.92
2022-10-22T18:35:31.746Z,47.33
2022-10-22T18:36:53.114Z,45.22
2022-10-22T18:38:14.661Z,42.47
2022-10-22T18:39:35.751Z,43.34
2022-10-22T18:40:56.951Z,48.46
2022-10-22T18:42:18.287Z,50.24
2022-10-22T18:43:39.788Z,43.22
2022-10-22T18:45:00.951Z,42.44
2022-10-22T18:46:22.792Z,39.97
2022-10-22T18:47:43.974Z,42.82
2022-10-22T18:49:05.574Z,42.64
2022-10-22T18:50:27.036Z,43.02
2022-10-22T18:51:48.361Z,44.56
2022-10-22T18:53:09.888Z,44.12
2022-10-22T18:54:31.179Z,43.88
2022-10-22T18:57:16.387Z,42.73
2022-10-22T18:58:39.674Z,43.17
2022-10-22T19:01:23.964Z,42.05
2022-10-22T19:04:06.283Z,40.74
2022-10-22T19:05:27.792Z,42.70
2022-10-22T19:06:49.436Z,44.27
2022-10-22T19:08:10.663Z,44.89
2022-10-22T19:09:32.203Z,43.28
2022-10-22T19:10:55.155Z,41.88
2022-10-22T19:12:16.201Z,41.82
2022-10-22T19:13:37.245Z,40.39
2022-10-22T19:14:58.784Z,40.96
2022-10-22T19:16:20.652Z,40.02
2022-10-22T19:17:42.022Z,39.35
2022-10-22T19:19:05.535Z,39.67
2022-10-22T19:20:26.876Z,37.79
2022-10-22T19:21:48.475Z,37.41
2022-10-22T19:23:10.076Z,36.86
2022-10-22T19:24:31.614Z,38.14
2022-10-22T19:27:15.057Z,38.63
2022-10-22T19:28:37.197Z,36.57
2022-10-22T19:29:58.607Z,27.94
2022-10-22T19:31:21.051Z,37.51
2022-10-22T19:32:42.529Z,36.30
2022-10-22T19:34:04.355Z,37.34
2022-10-22T19:35:25.951Z,36.28
2022-10-22T19:36:47.076Z,36.24
2022-10-22T19:38:08.707Z,38.58
2022-10-22T19:39:30.241Z,36.89
2022-10-22T19:40:51.847Z,36.95
2022-10-22T19:42:13.956Z,39.19
2022-10-22T19:43:35.361Z,40.61